Oegstgeest, Netherlands
Current Conditions -  °F | °C
As of 4:55 PM on Friday 24 Oct 2014 (Local Time) from EHAM Reporting Station
Overcast Overcast  
Wind Chill: 55°   Ceiling: 700
Heat Index: 55°   Visibility: 6mi
Dew Point: 54°   Wind: 12mph
Humidity: 94%   Direction: 180°S
Pressure: 29.97"   Gusts: NA
Location:  52.18°N, 4.47°E
Report Text: EHAM 241455Z 18010KT 9999 OVC007 13/12 Q1015 TEMPO 4000
Loading
Personal Weather Stations






























Interactive Weather Map
Tropical Storm Tracking
New forecast layout! Learn more

10-Day Weather Forecast

Advertisements
Track Severe Weather on mobile